sensor_id;sensor_type;location;lat;lon;timestamp;P1;durP1;ratioP1;P2;durP2;ratioP2
30571;SDS011;17348;50.948;10.696;2023-06-14T00:01:15;16.45;;;4.30;;
30571;SDS011;17348;50.948;10.696;2023-06-14T00:04:17;6.63;;;3.67;;
30571;SDS011;17348;50.948;10.696;2023-06-14T00:07:21;9.05;;;3.58;;
30571;SDS011;17348;50.948;10.696;2023-06-14T00:10:37;12.20;;;3.13;;
30571;SDS011;17348;50.948;10.696;2023-06-14T00:13:42;5.63;;;3.55;;
30571;SDS011;17348;50.948;10.696;2023-06-14T00:16:44;11.57;;;3.40;;
30571;SDS011;17348;50.948;10.696;2023-06-14T00:19:46;7.72;;;2.97;;
30571;SDS011;17348;50.948;10.696;2023-06-14T00:22:49;6.50;;;3.47;;
30571;SDS011;17348;50.948;10.696;2023-06-14T00:25:53;14.43;;;2.95;;
30571;SDS011;17348;50.948;10.696;2023-06-14T00:28:56;6.03;;;3.05;;
30571;SDS011;17348;50.948;10.696;2023-06-14T00:31:58;7.28;;;3.40;;
30571;SDS011;17348;50.948;10.696;2023-06-14T00:35:00;5.45;;;3.03;;
30571;SDS011;17348;50.948;10.696;2023-06-14T00:38:03;5.63;;;2.85;;
30571;SDS011;17348;50.948;10.696;2023-06-14T00:41:07;5.28;;;2.67;;
30571;SDS011;17348;50.948;10.696;2023-06-14T00:44:09;9.48;;;3.50;;
30571;SDS011;17348;50.948;10.696;2023-06-14T00:47:11;10.82;;;2.95;;
30571;SDS011;17348;50.948;10.696;2023-06-14T00:50:13;15.65;;;3.55;;
30571;SDS011;17348;50.948;10.696;2023-06-14T00:53:16;8.75;;;3.70;;
30571;SDS011;17348;50.948;10.696;2023-06-14T00:56:20;14.52;;;3.45;;
30571;SDS011;17348;50.948;10.696;2023-06-14T00:59:23;7.35;;;3.15;;
30571;SDS011;17348;50.948;10.696;2023-06-14T01:02:26;6.50;;;3.40;;
30571;SDS011;17348;50.948;10.696;2023-06-14T01:05:29;6.32;;;3.28;;
30571;SDS011;17348;50.948;10.696;2023-06-14T01:08:36;14.40;;;3.20;;
30571;SDS011;17348;50.948;10.696;2023-06-14T01:11:50;5.13;;;2.97;;
30571;SDS011;17348;50.948;10.696;2023-06-14T01:15:00;8.05;;;3.47;;
30571;SDS011;17348;50.948;10.696;2023-06-14T01:18:03;9.00;;;3.55;;
30571;SDS011;17348;50.948;10.696;2023-06-14T01:21:06;7.22;;;3.42;;
30571;SDS011;17348;50.948;10.696;2023-06-14T01:24:23;6.80;;;3.88;;
30571;SDS011;17348;50.948;10.696;2023-06-14T01:27:32;4.75;;;2.85;;
30571;SDS011;17348;50.948;10.696;2023-06-14T01:30:39;10.60;;;3.25;;
30571;SDS011;17348;50.948;10.696;2023-06-14T01:33:45;6.53;;;3.38;;
30571;SDS011;17348;50.948;10.696;2023-06-14T01:36:48;9.50;;;3.70;;
30571;SDS011;17348;50.948;10.696;2023-06-14T01:39:53;9.27;;;3.42;;
30571;SDS011;17348;50.948;10.696;2023-06-14T01:42:56;7.10;;;3.45;;
30571;SDS011;17348;50.948;10.696;2023-06-14T01:46:00;11.00;;;3.80;;
30571;SDS011;17348;50.948;10.696;2023-06-14T01:49:03;7.43;;;3.92;;
30571;SDS011;17348;50.948;10.696;2023-06-14T01:52:06;7.18;;;3.20;;
30571;SDS011;17348;50.948;10.696;2023-06-14T01:55:11;8.32;;;4.13;;
30571;SDS011;17348;50.948;10.696;2023-06-14T01:58:14;6.57;;;3.65;;
30571;SDS011;17348;50.948;10.696;2023-06-14T02:01:17;9.68;;;3.33;;
30571;SDS011;17348;50.948;10.696;2023-06-14T02:04:21;11.45;;;3.75;;
30571;SDS011;17348;50.948;10.696;2023-06-14T02:07:24;7.93;;;3.00;;
30571;SDS011;17348;50.948;10.696;2023-06-14T02:10:27;14.13;;;3.75;;
30571;SDS011;17348;50.948;10.696;2023-06-14T02:13:30;10.40;;;3.03;;
30571;SDS011;17348;50.948;10.696;2023-06-14T02:16:32;5.15;;;2.88;;
30571;SDS011;17348;50.948;10.696;2023-06-14T02:19:36;6.28;;;3.47;;
30571;SDS011;17348;50.948;10.696;2023-06-14T02:22:39;11.77;;;3.25;;
30571;SDS011;17348;50.948;10.696;2023-06-14T02:25:43;9.13;;;3.30;;
30571;SDS011;17348;50.948;10.696;2023-06-14T02:28:46;8.77;;;3.10;;
30571;SDS011;17348;50.948;10.696;2023-06-14T02:31:48;7.20;;;3.58;;
30571;SDS011;17348;50.948;10.696;2023-06-14T02:34:51;5.60;;;3.28;;
30571;SDS011;17348;50.948;10.696;2023-06-14T02:37:53;7.07;;;3.72;;
30571;SDS011;17348;50.948;10.696;2023-06-14T02:40:57;5.15;;;3.17;;
30571;SDS011;17348;50.948;10.696;2023-06-14T02:44:02;5.80;;;3.22;;
30571;SDS011;17348;50.948;10.696;2023-06-14T02:47:05;11.95;;;3.58;;
30571;SDS011;17348;50.948;10.696;2023-06-14T02:50:07;4.15;;;3.35;;
30571;SDS011;17348;50.948;10.696;2023-06-14T02:53:10;5.43;;;3.88;;
30571;SDS011;17348;50.948;10.696;2023-06-14T02:56:14;8.88;;;3.58;;
30571;SDS011;17348;50.948;10.696;2023-06-14T02:59:18;7.35;;;3.10;;
30571;SDS011;17348;50.948;10.696;2023-06-14T03:02:22;5.75;;;3.40;;
30571;SDS011;17348;50.948;10.696;2023-06-14T03:05:24;4.50;;;3.30;;
30571;SDS011;17348;50.948;10.696;2023-06-14T03:08:28;4.75;;;3.38;;
30571;SDS011;17348;50.948;10.696;2023-06-14T03:11:33;5.78;;;3.25;;
30571;SDS011;17348;50.948;10.696;2023-06-14T03:14:36;5.22;;;3.38;;
30571;SDS011;17348;50.948;10.696;2023-06-14T03:17:38;7.00;;;3.55;;
30571;SDS011;17348;50.948;10.696;2023-06-14T03:20:41;8.13;;;3.40;;
30571;SDS011;17348;50.948;10.696;2023-06-14T03:23:46;5.43;;;2.85;;
30571;SDS011;17348;50.948;10.696;2023-06-14T03:26:50;9.25;;;3.45;;
30571;SDS011;17348;50.948;10.696;2023-06-14T03:29:52;8.10;;;3.20;;
30571;SDS011;17348;50.948;10.696;2023-06-14T03:32:54;5.47;;;3.33;;
30571;SDS011;17348;50.948;10.696;2023-06-14T03:36:01;7.15;;;3.53;;
30571;SDS011;17348;50.948;10.696;2023-06-14T03:39:04;7.20;;;3.03;;
30571;SDS011;17348;50.948;10.696;2023-06-14T03:42:08;11.18;;;4.30;;
30571;SDS011;17348;50.948;10.696;2023-06-14T03:45:11;11.45;;;3.20;;
30571;SDS011;17348;50.948;10.696;2023-06-14T03:48:13;4.63;;;2.65;;
30571;SDS011;17348;50.948;10.696;2023-06-14T03:51:15;9.90;;;3.90;;
30571;SDS011;17348;50.948;10.696;2023-06-14T03:54:19;11.25;;;3.63;;
30571;SDS011;17348;50.948;10.696;2023-06-14T03:57:23;4.50;;;2.67;;
30571;SDS011;17348;50.948;10.696;2023-06-14T04:00:25;10.68;;;3.15;;
30571;SDS011;17348;50.948;10.696;2023-06-14T04:03:28;6.93;;;2.67;;
30571;SDS011;17348;50.948;10.696;2023-06-14T04:06:30;5.28;;;3.30;;
30571;SDS011;17348;50.948;10.696;2023-06-14T04:09:33;6.97;;;2.47;;
30571;SDS011;17348;50.948;10.696;2023-06-14T04:12:37;7.53;;;2.95;;
30571;SDS011;17348;50.948;10.696;2023-06-14T04:15:39;4.93;;;2.88;;
30571;SDS011;17348;50.948;10.696;2023-06-14T04:18:44;7.10;;;2.85;;
30571;SDS011;17348;50.948;10.696;2023-06-14T04:21:47;8.15;;;3.53;;
30571;SDS011;17348;50.948;10.696;2023-06-14T04:24:49;6.28;;;3.20;;
30571;SDS011;17348;50.948;10.696;2023-06-14T04:27:54;16.23;;;3.65;;
30571;SDS011;17348;50.948;10.696;2023-06-14T04:30:58;6.30;;;3.38;;
30571;SDS011;17348;50.948;10.696;2023-06-14T04:34:02;3.88;;;2.45;;
30571;SDS011;17348;50.948;10.696;2023-06-14T04:37:06;3.63;;;2.53;;
30571;SDS011;17348;50.948;10.696;2023-06-14T04:40:09;6.03;;;2.85;;
30571;SDS011;17348;50.948;10.696;2023-06-14T04:43:13;11.93;;;3.17;;
30571;SDS011;17348;50.948;10.696;2023-06-14T04:46:17;4.68;;;2.92;;
30571;SDS011;17348;50.948;10.696;2023-06-14T04:49:20;4.80;;;3.00;;
30571;SDS011;17348;50.948;10.696;2023-06-14T04:52:23;4.20;;;3.08;;
30571;SDS011;17348;50.948;10.696;2023-06-14T04:55:26;5.72;;;3.10;;
30571;SDS011;17348;50.948;10.696;2023-06-14T04:58:30;5.53;;;3.50;;
30571;SDS011;17348;50.948;10.696;2023-06-14T05:01:33;5.85;;;2.85;;
30571;SDS011;17348;50.948;10.696;2023-06-14T05:04:36;4.57;;;2.83;;
30571;SDS011;17348;50.948;10.696;2023-06-14T05:07:40;6.78;;;3.00;;
30571;SDS011;17348;50.948;10.696;2023-06-14T05:10:42;5.97;;;3.10;;
30571;SDS011;17348;50.948;10.696;2023-06-14T05:13:46;10.82;;;2.88;;
30571;SDS011;17348;50.948;10.696;2023-06-14T05:16:48;10.10;;;2.95;;
30571;SDS011;17348;50.948;10.696;2023-06-14T05:19:50;9.93;;;3.35;;
30571;SDS011;17348;50.948;10.696;2023-06-14T05:22:53;5.20;;;3.05;;
30571;SDS011;17348;50.948;10.696;2023-06-14T05:25:57;5.30;;;3.17;;
30571;SDS011;17348;50.948;10.696;2023-06-14T05:29:01;5.60;;;2.97;;
30571;SDS011;17348;50.948;10.696;2023-06-14T05:32:04;6.35;;;3.55;;
30571;SDS011;17348;50.948;10.696;2023-06-14T05:35:07;7.60;;;3.33;;
30571;SDS011;17348;50.948;10.696;2023-06-14T05:38:09;4.88;;;3.10;;
30571;SDS011;17348;50.948;10.696;2023-06-14T05:41:12;8.55;;;3.20;;
30571;SDS011;17348;50.948;10.696;2023-06-14T05:44:16;13.80;;;4.55;;
30571;SDS011;17348;50.948;10.696;2023-06-14T05:47:18;6.93;;;4.10;;
30571;SDS011;17348;50.948;10.696;2023-06-14T05:50:20;8.13;;;3.70;;
30571;SDS011;17348;50.948;10.696;2023-06-14T05:53:23;7.55;;;3.42;;
30571;SDS011;17348;50.948;10.696;2023-06-14T05:56:25;11.55;;;3.55;;
30571;SDS011;17348;50.948;10.696;2023-06-14T05:59:29;8.10;;;3.72;;
30571;SDS011;17348;50.948;10.696;2023-06-14T06:02:31;10.77;;;3.92;;
30571;SDS011;17348;50.948;10.696;2023-06-14T06:05:33;8.30;;;3.63;;
30571;SDS011;17348;50.948;10.696;2023-06-14T06:08:36;18.10;;;3.45;;
30571;SDS011;17348;50.948;10.696;2023-06-14T06:11:38;12.13;;;3.40;;
30571;SDS011;17348;50.948;10.696;2023-06-14T06:14:42;5.43;;;3.40;;
30571;SDS011;17348;50.948;10.696;2023-06-14T06:17:44;4.63;;;3.25;;
30571;SDS011;17348;50.948;10.696;2023-06-14T06:20:48;6.43;;;3.55;;
30571;SDS011;17348;50.948;10.696;2023-06-14T06:23:50;6.03;;;3.70;;
30571;SDS011;17348;50.948;10.696;2023-06-14T06:26:52;8.38;;;3.92;;
30571;SDS011;17348;50.948;10.696;2023-06-14T06:29:56;5.07;;;3.30;;
30571;SDS011;17348;50.948;10.696;2023-06-14T06:32:58;7.88;;;3.55;;
30571;SDS011;17348;50.948;10.696;2023-06-14T06:36:01;8.10;;;3.45;;
30571;SDS011;17348;50.948;10.696;2023-06-14T06:39:03;7.85;;;4.07;;
30571;SDS011;17348;50.948;10.696;2023-06-14T06:42:11;6.57;;;4.10;;
30571;SDS011;17348;50.948;10.696;2023-06-14T06:45:15;11.80;;;4.18;;
30571;SDS011;17348;50.948;10.696;2023-06-14T06:48:17;5.43;;;3.97;;
30571;SDS011;17348;50.948;10.696;2023-06-14T06:51:20;8.18;;;3.78;;
30571;SDS011;17348;50.948;10.696;2023-06-14T06:54:22;7.40;;;4.57;;
30571;SDS011;17348;50.948;10.696;2023-06-14T06:57:24;6.57;;;3.67;;
30571;SDS011;17348;50.948;10.696;2023-06-14T07:00:28;12.85;;;3.78;;
30571;SDS011;17348;50.948;10.696;2023-06-14T07:03:30;10.43;;;4.55;;
30571;SDS011;17348;50.948;10.696;2023-06-14T07:06:32;6.00;;;3.75;;
30571;SDS011;17348;50.948;10.696;2023-06-14T07:09:35;7.70;;;4.00;;
30571;SDS011;17348;50.948;10.696;2023-06-14T07:12:38;9.38;;;3.95;;
30571;SDS011;17348;50.948;10.696;2023-06-14T07:15:42;5.38;;;3.90;;
30571;SDS011;17348;50.948;10.696;2023-06-14T07:18:44;7.03;;;4.50;;
30571;SDS011;17348;50.948;10.696;2023-06-14T07:21:46;10.32;;;4.00;;
30571;SDS011;17348;50.948;10.696;2023-06-14T07:24:49;8.90;;;3.70;;
30571;SDS011;17348;50.948;10.696;2023-06-14T07:27:51;8.48;;;4.20;;
30571;SDS011;17348;50.948;10.696;2023-06-14T07:30:55;8.27;;;4.07;;
30571;SDS011;17348;50.948;10.696;2023-06-14T07:33:57;5.40;;;3.60;;
30571;SDS011;17348;50.948;10.696;2023-06-14T07:37:00;11.15;;;4.38;;
30571;SDS011;17348;50.948;10.696;2023-06-14T07:40:03;9.02;;;4.10;;
30571;SDS011;17348;50.948;10.696;2023-06-14T07:43:07;6.70;;;3.83;;
30571;SDS011;17348;50.948;10.696;2023-06-14T07:46:11;8.73;;;3.60;;
30571;SDS011;17348;50.948;10.696;2023-06-14T07:49:13;10.65;;;4.38;;
30571;SDS011;17348;50.948;10.696;2023-06-14T07:52:15;5.35;;;3.67;;
30571;SDS011;17348;50.948;10.696;2023-06-14T07:55:18;7.60;;;4.13;;
30571;SDS011;17348;50.948;10.696;2023-06-14T07:58:20;13.23;;;4.38;;
30571;SDS011;17348;50.948;10.696;2023-06-14T08:01:24;12.07;;;4.13;;
30571;SDS011;17348;50.948;10.696;2023-06-14T08:04:28;14.48;;;4.40;;
30571;SDS011;17348;50.948;10.696;2023-06-14T08:07:31;11.05;;;4.22;;
30571;SDS011;17348;50.948;10.696;2023-06-14T08:10:33;10.00;;;3.95;;
30571;SDS011;17348;50.948;10.696;2023-06-14T08:13:36;16.98;;;4.93;;
30571;SDS011;17348;50.948;10.696;2023-06-14T08:16:39;11.77;;;4.38;;
30571;SDS011;17348;50.948;10.696;2023-06-14T08:19:42;12.82;;;4.60;;
30571;SDS011;17348;50.948;10.696;2023-06-14T08:22:44;13.77;;;4.68;;
30571;SDS011;17348;50.948;10.696;2023-06-14T08:25:48;9.18;;;4.60;;
30571;SDS011;17348;50.948;10.696;2023-06-14T08:28:51;14.40;;;4.78;;
30571;SDS011;17348;50.948;10.696;2023-06-14T08:31:54;13.63;;;3.80;;
30571;SDS011;17348;50.948;10.696;2023-06-14T08:34:57;12.63;;;4.07;;
30571;SDS011;17348;50.948;10.696;2023-06-14T08:37:59;10.68;;;4.25;;
30571;SDS011;17348;50.948;10.696;2023-06-14T08:41:01;6.40;;;3.80;;
30571;SDS011;17348;50.948;10.696;2023-06-14T08:44:06;7.90;;;3.55;;
30571;SDS011;17348;50.948;10.696;2023-06-14T08:47:10;8.60;;;3.58;;
30571;SDS011;17348;50.948;10.696;2023-06-14T08:50:13;8.48;;;4.15;;
30571;SDS011;17348;50.948;10.696;2023-06-14T08:53:16;9.60;;;3.45;;
30571;SDS011;17348;50.948;10.696;2023-06-14T08:56:20;7.60;;;3.47;;
30571;SDS011;17348;50.948;10.696;2023-06-14T08:59:26;10.25;;;4.10;;
30571;SDS011;17348;50.948;10.696;2023-06-14T09:02:30;10.05;;;3.53;;
30571;SDS011;17348;50.948;10.696;2023-06-14T09:05:35;8.70;;;3.40;;
30571;SDS011;17348;50.948;10.696;2023-06-14T09:08:38;19.50;;;3.60;;
30571;SDS011;17348;50.948;10.696;2023-06-14T09:11:42;4.95;;;3.03;;
30571;SDS011;17348;50.948;10.696;2023-06-14T09:14:44;6.57;;;3.53;;
30571;SDS011;17348;50.948;10.696;2023-06-14T09:17:48;5.05;;;3.22;;
30571;SDS011;17348;50.948;10.696;2023-06-14T09:20:52;6.10;;;3.60;;
30571;SDS011;17348;50.948;10.696;2023-06-14T09:23:55;20.13;;;3.58;;
30571;SDS011;17348;50.948;10.696;2023-06-14T09:26:57;5.65;;;3.25;;
30571;SDS011;17348;50.948;10.696;2023-06-14T09:30:00;3.97;;;2.80;;
30571;SDS011;17348;50.948;10.696;2023-06-14T09:33:03;6.75;;;3.53;;
30571;SDS011;17348;50.948;10.696;2023-06-14T09:36:09;7.97;;;3.75;;
30571;SDS011;17348;50.948;10.696;2023-06-14T09:39:12;10.32;;;3.03;;
30571;SDS011;17348;50.948;10.696;2023-06-14T09:42:19;11.70;;;3.55;;
30571;SDS011;17348;50.948;10.696;2023-06-14T09:45:21;11.35;;;3.58;;
30571;SDS011;17348;50.948;10.696;2023-06-14T09:48:25;5.80;;;3.85;;
30571;SDS011;17348;50.948;10.696;2023-06-14T09:51:28;9.32;;;3.22;;
30571;SDS011;17348;50.948;10.696;2023-06-14T09:54:31;10.55;;;3.40;;
30571;SDS011;17348;50.948;10.696;2023-06-14T09:57:36;10.95;;;3.55;;
30571;SDS011;17348;50.948;10.696;2023-06-14T10:00:39;4.82;;;3.22;;
30571;SDS011;17348;50.948;10.696;2023-06-14T10:03:44;9.18;;;3.92;;
30571;SDS011;17348;50.948;10.696;2023-06-14T10:06:49;9.35;;;3.85;;
30571;SDS011;17348;50.948;10.696;2023-06-14T10:09:53;7.85;;;3.40;;
30571;SDS011;17348;50.948;10.696;2023-06-14T10:12:56;8.60;;;3.15;;
30571;SDS011;17348;50.948;10.696;2023-06-14T10:16:00;7.15;;;3.25;;
30571;SDS011;17348;50.948;10.696;2023-06-14T10:19:13;6.70;;;3.60;;
30571;SDS011;17348;50.948;10.696;2023-06-14T10:22:21;9.68;;;2.72;;
30571;SDS011;17348;50.948;10.696;2023-06-14T10:25:28;7.65;;;3.00;;
30571;SDS011;17348;50.948;10.696;2023-06-14T10:28:31;18.38;;;3.72;;
30571;SDS011;17348;50.948;10.696;2023-06-14T10:31:41;5.82;;;3.13;;
30571;SDS011;17348;50.948;10.696;2023-06-14T10:34:45;4.85;;;3.50;;
30571;SDS011;17348;50.948;10.696;2023-06-14T10:37:56;8.07;;;3.80;;
30571;SDS011;17348;50.948;10.696;2023-06-14T10:41:08;9.95;;;3.20;;
30571;SDS011;17348;50.948;10.696;2023-06-14T10:50:46;6.38;;;2.97;;
30571;SDS011;17348;50.948;10.696;2023-06-14T10:53:50;6.07;;;3.05;;
30571;SDS011;17348;50.948;10.696;2023-06-14T10:56:53;4.22;;;2.95;;
30571;SDS011;17348;50.948;10.696;2023-06-14T10:59:55;4.18;;;2.75;;
30571;SDS011;17348;50.948;10.696;2023-06-14T11:03:11;11.13;;;2.85;;
30571;SDS011;17348;50.948;10.696;2023-06-14T11:06:46;9.90;;;3.25;;
30571;SDS011;17348;50.948;10.696;2023-06-14T11:09:58;11.02;;;2.78;;
30571;SDS011;17348;50.948;10.696;2023-06-14T11:13:12;6.47;;;2.55;;
30571;SDS011;17348;50.948;10.696;2023-06-14T11:16:15;11.60;;;3.03;;
30571;SDS011;17348;50.948;10.696;2023-06-14T11:19:19;7.28;;;2.80;;
30571;SDS011;17348;50.948;10.696;2023-06-14T11:22:24;6.32;;;2.60;;
30571;SDS011;17348;50.948;10.696;2023-06-14T11:25:26;4.63;;;2.40;;
30571;SDS011;17348;50.948;10.696;2023-06-14T11:28:36;5.40;;;2.78;;
30571;SDS011;17348;50.948;10.696;2023-06-14T11:31:42;3.85;;;2.67;;
30571;SDS011;17348;50.948;10.696;2023-06-14T11:34:46;9.25;;;3.00;;
30571;SDS011;17348;50.948;10.696;2023-06-14T11:37:53;9.68;;;2.92;;
30571;SDS011;17348;50.948;10.696;2023-06-14T11:41:00;4.72;;;2.65;;
30571;SDS011;17348;50.948;10.696;2023-06-14T11:44:02;4.85;;;2.78;;
30571;SDS011;17348;50.948;10.696;2023-06-14T11:47:05;9.25;;;3.60;;
30571;SDS011;17348;50.948;10.696;2023-06-14T11:50:08;6.80;;;3.40;;
30571;SDS011;17348;50.948;10.696;2023-06-14T11:53:13;4.30;;;2.85;;
30571;SDS011;17348;50.948;10.696;2023-06-14T11:56:17;9.63;;;3.10;;
30571;SDS011;17348;50.948;10.696;2023-06-14T11:59:20;4.63;;;2.95;;
30571;SDS011;17348;50.948;10.696;2023-06-14T12:02:22;7.97;;;2.28;;
30571;SDS011;17348;50.948;10.696;2023-06-14T12:05:25;10.88;;;3.53;;
30571;SDS011;17348;50.948;10.696;2023-06-14T12:08:33;6.57;;;2.22;;
30571;SDS011;17348;50.948;10.696;2023-06-14T12:11:39;5.07;;;2.92;;
30571;SDS011;17348;50.948;10.696;2023-06-14T12:14:41;4.75;;;2.67;;
30571;SDS011;17348;50.948;10.696;2023-06-14T12:17:44;6.32;;;3.10;;
30571;SDS011;17348;50.948;10.696;2023-06-14T12:20:47;8.85;;;2.88;;
30571;SDS011;17348;50.948;10.696;2023-06-14T12:23:53;4.18;;;2.17;;
30571;SDS011;17348;50.948;10.696;2023-06-14T12:26:57;3.53;;;2.10;;
30571;SDS011;17348;50.948;10.696;2023-06-14T12:30:00;9.65;;;2.78;;
30571;SDS011;17348;50.948;10.696;2023-06-14T12:33:05;6.55;;;2.50;;
30571;SDS011;17348;50.948;10.696;2023-06-14T12:36:08;10.70;;;2.85;;
30571;SDS011;17348;50.948;10.696;2023-06-14T12:39:12;7.22;;;2.60;;
30571;SDS011;17348;50.948;10.696;2023-06-14T12:42:15;6.03;;;2.90;;
30571;SDS011;17348;50.948;10.696;2023-06-14T12:45:17;8.38;;;2.58;;
30571;SDS011;17348;50.948;10.696;2023-06-14T12:48:20;8.88;;;2.42;;
30571;SDS011;17348;50.948;10.696;2023-06-14T12:51:22;5.40;;;2.53;;
30571;SDS011;17348;50.948;10.696;2023-06-14T12:54:27;4.03;;;2.80;;
30571;SDS011;17348;50.948;10.696;2023-06-14T12:57:29;4.25;;;2.63;;
30571;SDS011;17348;50.948;10.696;2023-06-14T13:00:31;3.30;;;2.50;;
30571;SDS011;17348;50.948;10.696;2023-06-14T13:03:34;4.85;;;2.83;;
30571;SDS011;17348;50.948;10.696;2023-06-14T13:06:36;4.30;;;2.42;;
30571;SDS011;17348;50.948;10.696;2023-06-14T13:09:40;7.70;;;2.53;;
30571;SDS011;17348;50.948;10.696;2023-06-14T13:12:42;3.80;;;2.17;;
30571;SDS011;17348;50.948;10.696;2023-06-14T13:15:45;11.23;;;2.88;;
30571;SDS011;17348;50.948;10.696;2023-06-14T13:18:48;6.72;;;2.42;;
30571;SDS011;17348;50.948;10.696;2023-06-14T13:21:51;4.40;;;2.47;;
30571;SDS011;17348;50.948;10.696;2023-06-14T13:24:55;2.28;;;2.08;;
30571;SDS011;17348;50.948;10.696;2023-06-14T13:27:57;4.18;;;2.60;;
30571;SDS011;17348;50.948;10.696;2023-06-14T13:30:59;4.72;;;2.17;;
30571;SDS011;17348;50.948;10.696;2023-06-14T13:34:02;3.53;;;2.15;;
30571;SDS011;17348;50.948;10.696;2023-06-14T13:37:05;4.43;;;2.40;;
30571;SDS011;17348;50.948;10.696;2023-06-14T13:40:09;7.35;;;2.53;;
30571;SDS011;17348;50.948;10.696;2023-06-14T13:43:12;6.40;;;2.47;;
30571;SDS011;17348;50.948;10.696;2023-06-14T13:46:14;4.40;;;2.80;;
30571;SDS011;17348;50.948;10.696;2023-06-14T13:49:17;3.35;;;2.58;;
30571;SDS011;17348;50.948;10.696;2023-06-14T13:52:19;2.72;;;2.25;;
30571;SDS011;17348;50.948;10.696;2023-06-14T13:55:23;3.80;;;2.55;;
30571;SDS011;17348;50.948;10.696;2023-06-14T13:58:25;3.03;;;2.42;;
30571;SDS011;17348;50.948;10.696;2023-06-14T14:01:28;4.45;;;2.40;;
30571;SDS011;17348;50.948;10.696;2023-06-14T14:04:30;3.40;;;2.53;;
30571;SDS011;17348;50.948;10.696;2023-06-14T14:07:32;4.03;;;2.40;;
30571;SDS011;17348;50.948;10.696;2023-06-14T14:10:38;3.95;;;2.33;;
30571;SDS011;17348;50.948;10.696;2023-06-14T14:13:40;4.80;;;2.78;;
30571;SDS011;17348;50.948;10.696;2023-06-14T14:16:43;4.57;;;2.10;;
30571;SDS011;17348;50.948;10.696;2023-06-14T14:19:45;6.00;;;2.50;;
30571;SDS011;17348;50.948;10.696;2023-06-14T14:22:47;8.82;;;2.70;;
30571;SDS011;17348;50.948;10.696;2023-06-14T14:25:51;3.95;;;2.40;;
30571;SDS011;17348;50.948;10.696;2023-06-14T14:28:53;4.03;;;2.55;;
30571;SDS011;17348;50.948;10.696;2023-06-14T14:31:56;6.45;;;3.00;;
30571;SDS011;17348;50.948;10.696;2023-06-14T14:34:58;3.65;;;2.67;;
30571;SDS011;17348;50.948;10.696;2023-06-14T14:38:00;4.13;;;2.85;;
30571;SDS011;17348;50.948;10.696;2023-06-14T14:41:05;3.97;;;2.35;;
30571;SDS011;17348;50.948;10.696;2023-06-14T14:44:07;4.90;;;2.63;;
30571;SDS011;17348;50.948;10.696;2023-06-14T14:47:11;7.60;;;2.65;;
30571;SDS011;17348;50.948;10.696;2023-06-14T14:50:13;2.70;;;2.03;;
30571;SDS011;17348;50.948;10.696;2023-06-14T14:53:16;4.38;;;2.33;;
30571;SDS011;17348;50.948;10.696;2023-06-14T14:56:20;7.93;;;2.75;;
30571;SDS011;17348;50.948;10.696;2023-06-14T14:59:23;3.17;;;2.20;;
30571;SDS011;17348;50.948;10.696;2023-06-14T15:02:26;3.13;;;1.77;;
30571;SDS011;17348;50.948;10.696;2023-06-14T15:05:28;4.10;;;1.88;;
30571;SDS011;17348;50.948;10.696;2023-06-14T15:08:30;3.40;;;1.83;;
30571;SDS011;17348;50.948;10.696;2023-06-14T15:11:34;2.72;;;1.90;;
30571;SDS011;17348;50.948;10.696;2023-06-14T15:14:36;2.20;;;1.70;;
30571;SDS011;17348;50.948;10.696;2023-06-14T15:17:39;2.70;;;1.70;;
30571;SDS011;17348;50.948;10.696;2023-06-14T15:20:41;2.53;;;1.80;;
30571;SDS011;17348;50.948;10.696;2023-06-14T15:23:43;3.83;;;2.00;;
30571;SDS011;17348;50.948;10.696;2023-06-14T15:26:48;2.88;;;1.73;;
30571;SDS011;17348;50.948;10.696;2023-06-14T15:29:51;3.72;;;1.55;;
30571;SDS011;17348;50.948;10.696;2023-06-14T15:32:53;2.90;;;1.35;;
30571;SDS011;17348;50.948;10.696;2023-06-14T15:35:55;9.02;;;2.20;;
30571;SDS011;17348;50.948;10.696;2023-06-14T15:38:58;2.67;;;1.77;;
30571;SDS011;17348;50.948;10.696;2023-06-14T15:42:02;2.20;;;1.70;;
30571;SDS011;17348;50.948;10.696;2023-06-14T15:45:06;3.60;;;1.83;;
30571;SDS011;17348;50.948;10.696;2023-06-14T15:48:09;2.40;;;1.42;;
30571;SDS011;17348;50.948;10.696;2023-06-14T15:51:11;1.83;;;1.52;;
30571;SDS011;17348;50.948;10.696;2023-06-14T15:54:14;2.47;;;1.65;;
30571;SDS011;17348;50.948;10.696;2023-06-14T15:57:17;2.65;;;1.70;;
30571;SDS011;17348;50.948;10.696;2023-06-14T16:00:20;6.72;;;1.80;;
30571;SDS011;17348;50.948;10.696;2023-06-14T16:03:23;5.15;;;1.85;;
30571;SDS011;17348;50.948;10.696;2023-06-14T16:06:25;2.53;;;1.63;;
30571;SDS011;17348;50.948;10.696;2023-06-14T16:09:27;3.22;;;1.83;;
30571;SDS011;17348;50.948;10.696;2023-06-14T16:12:31;3.35;;;2.05;;
30571;SDS011;17348;50.948;10.696;2023-06-14T16:15:34;7.57;;;2.17;;
30571;SDS011;17348;50.948;10.696;2023-06-14T16:18:36;5.05;;;1.90;;
30571;SDS011;17348;50.948;10.696;2023-06-14T16:21:38;5.50;;;2.72;;
30571;SDS011;17348;50.948;10.696;2023-06-14T16:24:41;2.90;;;2.00;;
30571;SDS011;17348;50.948;10.696;2023-06-14T16:27:44;6.35;;;3.72;;
30571;SDS011;17348;50.948;10.696;2023-06-14T16:30:47;9.10;;;2.42;;
30571;SDS011;17348;50.948;10.696;2023-06-14T16:33:49;9.00;;;4.30;;
30571;SDS011;17348;50.948;10.696;2023-06-14T16:36:56;6.40;;;2.45;;
30571;SDS011;17348;50.948;10.696;2023-06-14T16:39:59;4.93;;;2.35;;
30571;SDS011;17348;50.948;10.696;2023-06-14T16:43:02;5.95;;;2.13;;
30571;SDS011;17348;50.948;10.696;2023-06-14T16:46:05;5.22;;;2.40;;
30571;SDS011;17348;50.948;10.696;2023-06-14T16:49:07;9.27;;;2.30;;
30571;SDS011;17348;50.948;10.696;2023-06-14T16:52:09;3.55;;;2.00;;
30571;SDS011;17348;50.948;10.696;2023-06-14T16:55:12;10.55;;;2.20;;
30571;SDS011;17348;50.948;10.696;2023-06-14T16:58:15;3.88;;;2.35;;
30571;SDS011;17348;50.948;10.696;2023-06-14T17:01:18;3.28;;;2.22;;
30571;SDS011;17348;50.948;10.696;2023-06-14T17:04:20;3.03;;;2.08;;
30571;SDS011;17348;50.948;10.696;2023-06-14T17:07:23;3.05;;;2.15;;
30571;SDS011;17348;50.948;10.696;2023-06-14T17:10:26;8.00;;;3.33;;
30571;SDS011;17348;50.948;10.696;2023-06-14T17:13:29;6.70;;;2.30;;
30571;SDS011;17348;50.948;10.696;2023-06-14T17:16:32;3.30;;;2.33;;
30571;SDS011;17348;50.948;10.696;2023-06-14T17:19:34;4.85;;;2.42;;
30571;SDS011;17348;50.948;10.696;2023-06-14T17:22:37;3.13;;;2.22;;
30571;SDS011;17348;50.948;10.696;2023-06-14T17:25:41;5.22;;;2.30;;
30571;SDS011;17348;50.948;10.696;2023-06-14T17:28:45;4.18;;;2.33;;
30571;SDS011;17348;50.948;10.696;2023-06-14T17:31:47;3.25;;;2.30;;
30571;SDS011;17348;50.948;10.696;2023-06-14T17:34:49;7.78;;;2.17;;
30571;SDS011;17348;50.948;10.696;2023-06-14T17:37:52;4.75;;;2.38;;
30571;SDS011;17348;50.948;10.696;2023-06-14T17:40:54;2.80;;;2.35;;
30571;SDS011;17348;50.948;10.696;2023-06-14T17:44:00;4.80;;;2.85;;
30571;SDS011;17348;50.948;10.696;2023-06-14T17:47:03;3.55;;;2.15;;
30571;SDS011;17348;50.948;10.696;2023-06-14T17:50:06;8.73;;;2.60;;
30571;SDS011;17348;50.948;10.696;2023-06-14T17:53:09;4.45;;;2.00;;
30571;SDS011;17348;50.948;10.696;2023-06-14T17:56:11;7.55;;;2.92;;
30571;SDS011;17348;50.948;10.696;2023-06-14T17:59:14;3.95;;;2.42;;
30571;SDS011;17348;50.948;10.696;2023-06-14T18:02:17;3.75;;;2.53;;
30571;SDS011;17348;50.948;10.696;2023-06-14T18:05:19;5.88;;;2.60;;
30571;SDS011;17348;50.948;10.696;2023-06-14T18:08:21;2.42;;;1.95;;
30571;SDS011;17348;50.948;10.696;2023-06-14T18:11:24;4.25;;;2.25;;
30571;SDS011;17348;50.948;10.696;2023-06-14T18:14:29;5.63;;;1.80;;